sensor_id;sensor_type;location;lat;lon;timestamp;P1;durP1;ratioP1;P2;durP2;ratioP2
34236;SDS011;20501;45.956;13.632;2022-12-18T00:01:31;17.08;;;8.05;;
34236;SDS011;20501;45.956;13.632;2022-12-18T00:03:59;13.90;;;8.00;;
34236;SDS011;20501;45.956;13.632;2022-12-18T00:06:26;14.60;;;7.18;;
34236;SDS011;20501;45.956;13.632;2022-12-18T00:08:54;12.98;;;6.80;;
34236;SDS011;20501;45.956;13.632;2022-12-18T00:11:21;12.10;;;6.53;;
34236;SDS011;20501;45.956;13.632;2022-12-18T00:13:49;12.27;;;6.30;;
34236;SDS011;20501;45.956;13.632;2022-12-18T00:16:16;14.52;;;6.78;;
34236;SDS011;20501;45.956;13.632;2022-12-18T00:18:45;12.13;;;7.20;;
34236;SDS011;20501;45.956;13.632;2022-12-18T00:21:11;19.45;;;9.20;;
34236;SDS011;20501;45.956;13.632;2022-12-18T00:23:37;13.57;;;7.50;;
34236;SDS011;20501;45.956;13.632;2022-12-18T00:26:05;12.13;;;6.55;;
34236;SDS011;20501;45.956;13.632;2022-12-18T00:28:33;10.93;;;5.93;;
34236;SDS011;20501;45.956;13.632;2022-12-18T00:31:02;9.98;;;5.57;;
34236;SDS011;20501;45.956;13.632;2022-12-18T00:33:29;15.10;;;7.75;;
34236;SDS011;20501;45.956;13.632;2022-12-18T00:35:54;12.40;;;7.13;;
34236;SDS011;20501;45.956;13.632;2022-12-18T00:38:24;12.38;;;7.03;;
34236;SDS011;20501;45.956;13.632;2022-12-18T00:40:50;12.90;;;7.35;;
34236;SDS011;20501;45.956;13.632;2022-12-18T00:43:15;12.00;;;6.60;;
34236;SDS011;20501;45.956;13.632;2022-12-18T00:45:41;10.45;;;6.15;;
34236;SDS011;20501;45.956;13.632;2022-12-18T00:48:06;13.60;;;6.97;;
34236;SDS011;20501;45.956;13.632;2022-12-18T00:50:32;10.13;;;5.75;;
34236;SDS011;20501;45.956;13.632;2022-12-18T00:52:57;11.52;;;6.05;;
34236;SDS011;20501;45.956;13.632;2022-12-18T00:55:22;9.25;;;5.88;;
34236;SDS011;20501;45.956;13.632;2022-12-18T00:57:48;10.65;;;5.78;;
34236;SDS011;20501;45.956;13.632;2022-12-18T01:00:17;12.18;;;6.18;;
34236;SDS011;20501;45.956;13.632;2022-12-18T01:02:42;10.23;;;5.60;;
34236;SDS011;20501;45.956;13.632;2022-12-18T01:05:10;8.98;;;5.05;;
34236;SDS011;20501;45.956;13.632;2022-12-18T01:07:37;8.85;;;5.45;;
34236;SDS011;20501;45.956;13.632;2022-12-18T01:10:03;10.75;;;6.47;;
34236;SDS011;20501;45.956;13.632;2022-12-18T01:12:30;12.52;;;7.18;;
34236;SDS011;20501;45.956;13.632;2022-12-18T01:14:56;11.68;;;6.68;;
34236;SDS011;20501;45.956;13.632;2022-12-18T01:17:21;12.88;;;7.47;;
34236;SDS011;20501;45.956;13.632;2022-12-18T01:19:47;12.20;;;6.47;;
34236;SDS011;20501;45.956;13.632;2022-12-18T01:22:12;11.27;;;6.18;;
34236;SDS011;20501;45.956;13.632;2022-12-18T01:24:38;10.77;;;6.20;;
34236;SDS011;20501;45.956;13.632;2022-12-18T01:27:03;12.13;;;6.32;;
34236;SDS011;20501;45.956;13.632;2022-12-18T01:29:28;12.10;;;6.93;;
34236;SDS011;20501;45.956;13.632;2022-12-18T01:31:55;11.70;;;6.15;;
34236;SDS011;20501;45.956;13.632;2022-12-18T01:34:21;9.57;;;5.30;;
34236;SDS011;20501;45.956;13.632;2022-12-18T01:36:47;14.63;;;6.20;;
34236;SDS011;20501;45.956;13.632;2022-12-18T01:39:13;12.13;;;6.10;;
34236;SDS011;20501;45.956;13.632;2022-12-18T01:41:40;10.73;;;6.05;;
34236;SDS011;20501;45.956;13.632;2022-12-18T01:52:42;14.70;;;7.68;;
34236;SDS011;20501;45.956;13.632;2022-12-18T01:55:11;13.05;;;7.13;;
34236;SDS011;20501;45.956;13.632;2022-12-18T01:57:39;9.73;;;6.13;;
34236;SDS011;20501;45.956;13.632;2022-12-18T02:00:07;12.05;;;5.85;;
34236;SDS011;20501;45.956;13.632;2022-12-18T02:02:36;10.05;;;5.55;;
34236;SDS011;20501;45.956;13.632;2022-12-18T02:05:02;11.53;;;5.97;;
34236;SDS011;20501;45.956;13.632;2022-12-18T02:13:13;11.05;;;5.72;;
34236;SDS011;20501;45.956;13.632;2022-12-18T02:18:21;9.95;;;5.25;;
34236;SDS011;20501;45.956;13.632;2022-12-18T02:20:54;7.10;;;5.00;;
34236;SDS011;20501;45.956;13.632;2022-12-18T02:23:32;10.35;;;5.43;;
34236;SDS011;20501;45.956;13.632;2022-12-18T02:31:30;10.05;;;5.35;;
34236;SDS011;20501;45.956;13.632;2022-12-18T02:34:02;7.95;;;5.25;;
34236;SDS011;20501;45.956;13.632;2022-12-18T02:36:29;13.50;;;7.22;;
34236;SDS011;20501;45.956;13.632;2022-12-18T02:38:57;9.93;;;5.75;;
34236;SDS011;20501;45.956;13.632;2022-12-18T02:43:55;9.95;;;6.00;;
34236;SDS011;20501;45.956;13.632;2022-12-18T02:46:25;7.85;;;5.00;;
34236;SDS011;20501;45.956;13.632;2022-12-18T02:48:54;9.32;;;5.32;;
34236;SDS011;20501;45.956;13.632;2022-12-18T02:51:33;9.65;;;5.45;;
34236;SDS011;20501;45.956;13.632;2022-12-18T02:54:38;7.22;;;4.55;;
34236;SDS011;20501;45.956;13.632;2022-12-18T02:57:37;7.82;;;4.65;;
34236;SDS011;20501;45.956;13.632;2022-12-18T03:00:14;8.23;;;4.63;;
34236;SDS011;20501;45.956;13.632;2022-12-18T03:05:36;7.82;;;4.65;;
34236;SDS011;20501;45.956;13.632;2022-12-18T03:08:17;9.73;;;5.20;;
34236;SDS011;20501;45.956;13.632;2022-12-18T03:10:53;10.68;;;5.60;;
34236;SDS011;20501;45.956;13.632;2022-12-18T03:13:31;10.88;;;5.43;;
34236;SDS011;20501;45.956;13.632;2022-12-18T03:16:25;8.75;;;5.50;;
34236;SDS011;20501;45.956;13.632;2022-12-18T03:19:00;7.18;;;4.53;;
34236;SDS011;20501;45.956;13.632;2022-12-18T03:21:29;7.85;;;4.85;;
34236;SDS011;20501;45.956;13.632;2022-12-18T03:24:01;9.13;;;5.28;;
34236;SDS011;20501;45.956;13.632;2022-12-18T03:26:32;10.25;;;5.85;;
34236;SDS011;20501;45.956;13.632;2022-12-18T03:29:02;8.93;;;4.80;;
34236;SDS011;20501;45.956;13.632;2022-12-18T03:31:35;8.55;;;4.88;;
34236;SDS011;20501;45.956;13.632;2022-12-18T03:34:05;8.57;;;5.32;;
34236;SDS011;20501;45.956;13.632;2022-12-18T03:36:37;9.43;;;5.03;;
34236;SDS011;20501;45.956;13.632;2022-12-18T03:39:03;8.70;;;4.93;;
34236;SDS011;20501;45.956;13.632;2022-12-18T03:42:32;9.30;;;4.68;;
34236;SDS011;20501;45.956;13.632;2022-12-18T03:45:06;9.82;;;6.25;;
34236;SDS011;20501;45.956;13.632;2022-12-18T03:50:13;11.20;;;6.22;;
34236;SDS011;20501;45.956;13.632;2022-12-18T03:55:22;9.95;;;5.75;;
34236;SDS011;20501;45.956;13.632;2022-12-18T03:57:51;8.93;;;5.30;;
34236;SDS011;20501;45.956;13.632;2022-12-18T04:00:18;12.25;;;7.05;;
34236;SDS011;20501;45.956;13.632;2022-12-18T04:05:14;9.35;;;5.32;;
34236;SDS011;20501;45.956;13.632;2022-12-18T04:07:40;12.80;;;7.27;;
34236;SDS011;20501;45.956;13.632;2022-12-18T04:10:08;11.43;;;5.95;;
34236;SDS011;20501;45.956;13.632;2022-12-18T04:12:36;10.25;;;5.75;;
34236;SDS011;20501;45.956;13.632;2022-12-18T04:15:02;9.52;;;6.05;;
34236;SDS011;20501;45.956;13.632;2022-12-18T04:17:28;8.45;;;5.70;;
34236;SDS011;20501;45.956;13.632;2022-12-18T04:19:54;9.60;;;5.50;;
34236;SDS011;20501;45.956;13.632;2022-12-18T04:22:19;12.25;;;5.90;;
34236;SDS011;20501;45.956;13.632;2022-12-18T04:24:44;8.73;;;5.72;;
34236;SDS011;20501;45.956;13.632;2022-12-18T04:27:10;9.45;;;5.70;;
34236;SDS011;20501;45.956;13.632;2022-12-18T04:29:35;11.32;;;6.15;;
34236;SDS011;20501;45.956;13.632;2022-12-18T04:32:01;9.77;;;5.60;;
34236;SDS011;20501;45.956;13.632;2022-12-18T04:34:26;10.35;;;6.43;;
34236;SDS011;20501;45.956;13.632;2022-12-18T04:36:51;9.70;;;6.07;;
34236;SDS011;20501;45.956;13.632;2022-12-18T04:39:17;9.30;;;5.43;;
34236;SDS011;20501;45.956;13.632;2022-12-18T04:41:42;11.13;;;6.60;;
34236;SDS011;20501;45.956;13.632;2022-12-18T04:44:08;10.25;;;6.15;;
34236;SDS011;20501;45.956;13.632;2022-12-18T04:46:34;9.00;;;5.03;;
34236;SDS011;20501;45.956;13.632;2022-12-18T04:48:59;8.25;;;4.97;;
34236;SDS011;20501;45.956;13.632;2022-12-18T04:51:24;11.25;;;6.68;;
34236;SDS011;20501;45.956;13.632;2022-12-18T04:53:50;9.95;;;6.25;;
34236;SDS011;20501;45.956;13.632;2022-12-18T04:56:15;10.75;;;5.85;;
34236;SDS011;20501;45.956;13.632;2022-12-18T04:58:42;10.40;;;6.78;;
34236;SDS011;20501;45.956;13.632;2022-12-18T05:03:35;10.70;;;5.85;;
34236;SDS011;20501;45.956;13.632;2022-12-18T05:06:01;9.85;;;5.95;;
34236;SDS011;20501;45.956;13.632;2022-12-18T05:08:26;11.23;;;6.05;;
34236;SDS011;20501;45.956;13.632;2022-12-18T05:10:59;14.50;;;8.10;;
34236;SDS011;20501;45.956;13.632;2022-12-18T05:13:26;10.95;;;6.72;;
34236;SDS011;20501;45.956;13.632;2022-12-18T05:15:52;10.57;;;6.00;;
34236;SDS011;20501;45.956;13.632;2022-12-18T05:18:18;11.32;;;6.65;;
34236;SDS011;20501;45.956;13.632;2022-12-18T05:20:43;10.55;;;7.03;;
34236;SDS011;20501;45.956;13.632;2022-12-18T05:23:08;12.35;;;6.03;;
34236;SDS011;20501;45.956;13.632;2022-12-18T05:25:34;14.70;;;7.63;;
34236;SDS011;20501;45.956;13.632;2022-12-18T05:27:59;9.52;;;6.35;;
34236;SDS011;20501;45.956;13.632;2022-12-18T05:30:25;9.00;;;5.88;;
34236;SDS011;20501;45.956;13.632;2022-12-18T05:32:50;10.02;;;6.55;;
34236;SDS011;20501;45.956;13.632;2022-12-18T05:35:16;9.10;;;6.15;;
34236;SDS011;20501;45.956;13.632;2022-12-18T05:37:41;11.02;;;6.75;;
34236;SDS011;20501;45.956;13.632;2022-12-18T05:40:07;10.57;;;6.45;;
34236;SDS011;20501;45.956;13.632;2022-12-18T05:42:32;11.05;;;6.55;;
34236;SDS011;20501;45.956;13.632;2022-12-18T05:44:58;18.20;;;9.43;;
34236;SDS011;20501;45.956;13.632;2022-12-18T05:47:23;10.10;;;6.75;;
34236;SDS011;20501;45.956;13.632;2022-12-18T05:49:49;14.27;;;8.15;;
34236;SDS011;20501;45.956;13.632;2022-12-18T05:52:14;10.68;;;6.97;;
34236;SDS011;20501;45.956;13.632;2022-12-18T05:54:40;11.15;;;6.95;;
34236;SDS011;20501;45.956;13.632;2022-12-18T05:57:05;12.80;;;6.68;;
34236;SDS011;20501;45.956;13.632;2022-12-18T05:59:30;12.00;;;6.95;;
34236;SDS011;20501;45.956;13.632;2022-12-18T06:01:56;16.27;;;8.43;;
34236;SDS011;20501;45.956;13.632;2022-12-18T06:04:21;13.85;;;7.70;;
34236;SDS011;20501;45.956;13.632;2022-12-18T06:06:47;16.92;;;8.32;;
34236;SDS011;20501;45.956;13.632;2022-12-18T06:09:12;15.15;;;8.75;;
34236;SDS011;20501;45.956;13.632;2022-12-18T06:11:38;17.38;;;9.73;;
34236;SDS011;20501;45.956;13.632;2022-12-18T06:14:04;15.35;;;8.95;;
34236;SDS011;20501;45.956;13.632;2022-12-18T06:16:30;15.57;;;7.72;;
34236;SDS011;20501;45.956;13.632;2022-12-18T06:18:56;11.95;;;7.10;;
34236;SDS011;20501;45.956;13.632;2022-12-18T06:21:25;14.05;;;7.53;;
34236;SDS011;20501;45.956;13.632;2022-12-18T06:23:51;29.95;;;13.50;;
34236;SDS011;20501;45.956;13.632;2022-12-18T06:26:17;24.70;;;11.27;;
34236;SDS011;20501;45.956;13.632;2022-12-18T06:28:43;19.27;;;9.80;;
34236;SDS011;20501;45.956;13.632;2022-12-18T06:31:09;50.40;;;20.35;;
34236;SDS011;20501;45.956;13.632;2022-12-18T06:33:35;18.42;;;10.32;;
34236;SDS011;20501;45.956;13.632;2022-12-18T06:36:04;20.37;;;9.63;;
34236;SDS011;20501;45.956;13.632;2022-12-18T06:38:33;21.15;;;10.20;;
34236;SDS011;20501;45.956;13.632;2022-12-18T06:43:25;17.13;;;9.07;;
34236;SDS011;20501;45.956;13.632;2022-12-18T06:45:50;22.75;;;9.68;;
34236;SDS011;20501;45.956;13.632;2022-12-18T06:48:18;19.80;;;10.68;;
34236;SDS011;20501;45.956;13.632;2022-12-18T06:53:10;21.30;;;10.82;;
34236;SDS011;20501;45.956;13.632;2022-12-18T06:55:36;16.23;;;8.70;;
34236;SDS011;20501;45.956;13.632;2022-12-18T06:58:01;17.35;;;8.93;;
34236;SDS011;20501;45.956;13.632;2022-12-18T07:00:26;15.90;;;8.95;;
34236;SDS011;20501;45.956;13.632;2022-12-18T07:02:52;16.30;;;8.68;;
34236;SDS011;20501;45.956;13.632;2022-12-18T07:05:17;19.15;;;10.85;;
34236;SDS011;20501;45.956;13.632;2022-12-18T07:07:43;19.48;;;10.23;;
34236;SDS011;20501;45.956;13.632;2022-12-18T07:10:08;21.25;;;10.65;;
34236;SDS011;20501;45.956;13.632;2022-12-18T07:12:34;27.58;;;14.88;;
34236;SDS011;20501;45.956;13.632;2022-12-18T07:15:00;18.88;;;10.38;;
34236;SDS011;20501;45.956;13.632;2022-12-18T07:17:25;17.55;;;10.85;;
34236;SDS011;20501;45.956;13.632;2022-12-18T07:19:51;21.60;;;10.68;;
34236;SDS011;20501;45.956;13.632;2022-12-18T07:22:16;20.20;;;12.55;;
34236;SDS011;20501;45.956;13.632;2022-12-18T07:24:41;25.45;;;14.63;;
34236;SDS011;20501;45.956;13.632;2022-12-18T07:27:07;19.95;;;11.73;;
34236;SDS011;20501;45.956;13.632;2022-12-18T07:29:32;19.00;;;10.93;;
34236;SDS011;20501;45.956;13.632;2022-12-18T07:31:58;22.15;;;13.18;;
34236;SDS011;20501;45.956;13.632;2022-12-18T07:34:23;19.13;;;11.40;;
34236;SDS011;20501;45.956;13.632;2022-12-18T07:36:49;22.88;;;14.50;;
34236;SDS011;20501;45.956;13.632;2022-12-18T07:39:15;20.13;;;11.43;;
34236;SDS011;20501;45.956;13.632;2022-12-18T07:41:41;23.48;;;13.18;;
34236;SDS011;20501;45.956;13.632;2022-12-18T07:44:28;24.05;;;13.07;;
34236;SDS011;20501;45.956;13.632;2022-12-18T07:46:54;17.23;;;11.18;;
34236;SDS011;20501;45.956;13.632;2022-12-18T07:49:19;20.67;;;11.68;;
34236;SDS011;20501;45.956;13.632;2022-12-18T07:51:45;26.23;;;13.90;;
34236;SDS011;20501;45.956;13.632;2022-12-18T07:54:14;28.85;;;15.82;;
34236;SDS011;20501;45.956;13.632;2022-12-18T07:56:39;30.17;;;16.52;;
34236;SDS011;20501;45.956;13.632;2022-12-18T07:59:05;31.33;;;17.13;;
34236;SDS011;20501;45.956;13.632;2022-12-18T08:01:30;23.42;;;14.07;;
34236;SDS011;20501;45.956;13.632;2022-12-18T08:03:56;24.95;;;13.70;;
34236;SDS011;20501;45.956;13.632;2022-12-18T08:06:22;23.98;;;12.93;;
34236;SDS011;20501;45.956;13.632;2022-12-18T08:08:48;21.83;;;12.88;;
34236;SDS011;20501;45.956;13.632;2022-12-18T08:11:13;24.90;;;14.50;;
34236;SDS011;20501;45.956;13.632;2022-12-18T08:13:39;27.08;;;14.50;;
34236;SDS011;20501;45.956;13.632;2022-12-18T08:16:05;24.65;;;12.77;;
34236;SDS011;20501;45.956;13.632;2022-12-18T08:18:32;27.48;;;14.25;;
34236;SDS011;20501;45.956;13.632;2022-12-18T08:21:06;26.83;;;14.27;;
34236;SDS011;20501;45.956;13.632;2022-12-18T08:23:34;26.95;;;15.10;;
34236;SDS011;20501;45.956;13.632;2022-12-18T08:25:59;27.60;;;15.13;;
34236;SDS011;20501;45.956;13.632;2022-12-18T08:28:24;26.33;;;12.73;;
34236;SDS011;20501;45.956;13.632;2022-12-18T08:30:53;24.70;;;12.98;;
34236;SDS011;20501;45.956;13.632;2022-12-18T08:33:18;24.73;;;12.43;;
34236;SDS011;20501;45.956;13.632;2022-12-18T08:35:44;26.10;;;13.52;;
34236;SDS011;20501;45.956;13.632;2022-12-18T08:38:09;21.95;;;12.65;;
34236;SDS011;20501;45.956;13.632;2022-12-18T08:40:35;25.50;;;14.13;;
34236;SDS011;20501;45.956;13.632;2022-12-18T08:43:00;20.42;;;11.80;;
34236;SDS011;20501;45.956;13.632;2022-12-18T08:45:44;25.73;;;14.30;;
34236;SDS011;20501;45.956;13.632;2022-12-18T08:48:09;31.83;;;16.65;;
34236;SDS011;20501;45.956;13.632;2022-12-18T08:50:35;39.42;;;19.48;;
34236;SDS011;20501;45.956;13.632;2022-12-18T08:53:01;38.08;;;21.70;;
34236;SDS011;20501;45.956;13.632;2022-12-18T08:55:26;24.42;;;13.23;;
34236;SDS011;20501;45.956;13.632;2022-12-18T08:57:52;32.65;;;16.63;;
34236;SDS011;20501;45.956;13.632;2022-12-18T09:00:17;29.85;;;15.20;;
34236;SDS011;20501;45.956;13.632;2022-12-18T09:02:43;26.92;;;13.40;;
34236;SDS011;20501;45.956;13.632;2022-12-18T09:05:08;24.67;;;13.68;;
34236;SDS011;20501;45.956;13.632;2022-12-18T09:07:34;22.60;;;13.00;;
34236;SDS011;20501;45.956;13.632;2022-12-18T09:10:00;35.17;;;16.60;;
34236;SDS011;20501;45.956;13.632;2022-12-18T09:12:25;24.02;;;12.77;;
34236;SDS011;20501;45.956;13.632;2022-12-18T09:14:51;24.48;;;12.82;;
34236;SDS011;20501;45.956;13.632;2022-12-18T09:17:16;24.42;;;13.45;;
34236;SDS011;20501;45.956;13.632;2022-12-18T09:19:42;23.30;;;10.70;;
34236;SDS011;20501;45.956;13.632;2022-12-18T09:22:08;20.83;;;12.10;;
34236;SDS011;20501;45.956;13.632;2022-12-18T09:24:34;21.20;;;11.52;;
34236;SDS011;20501;45.956;13.632;2022-12-18T09:27:00;23.10;;;11.20;;
34236;SDS011;20501;45.956;13.632;2022-12-18T09:29:25;20.08;;;11.38;;
34236;SDS011;20501;45.956;13.632;2022-12-18T09:31:51;17.65;;;10.25;;
34236;SDS011;20501;45.956;13.632;2022-12-18T09:34:16;19.92;;;10.80;;
34236;SDS011;20501;45.956;13.632;2022-12-18T09:36:42;17.42;;;10.00;;
34236;SDS011;20501;45.956;13.632;2022-12-18T09:39:08;19.00;;;10.43;;
34236;SDS011;20501;45.956;13.632;2022-12-18T09:44:13;18.30;;;10.27;;
34236;SDS011;20501;45.956;13.632;2022-12-18T09:46:54;18.70;;;9.65;;
34236;SDS011;20501;45.956;13.632;2022-12-18T09:49:23;16.48;;;8.68;;
34236;SDS011;20501;45.956;13.632;2022-12-18T09:52:04;19.65;;;10.77;;
34236;SDS011;20501;45.956;13.632;2022-12-18T09:55:05;16.70;;;8.52;;
34236;SDS011;20501;45.956;13.632;2022-12-18T09:57:51;18.15;;;10.50;;
34236;SDS011;20501;45.956;13.632;2022-12-18T10:00:22;14.43;;;8.93;;
34236;SDS011;20501;45.956;13.632;2022-12-18T10:02:50;15.07;;;8.45;;
34236;SDS011;20501;45.956;13.632;2022-12-18T10:05:25;17.15;;;9.68;;
34236;SDS011;20501;45.956;13.632;2022-12-18T10:13:20;16.92;;;9.52;;
34236;SDS011;20501;45.956;13.632;2022-12-18T10:21:19;16.23;;;9.65;;
34236;SDS011;20501;45.956;13.632;2022-12-18T10:26:59;25.23;;;10.57;;
34236;SDS011;20501;45.956;13.632;2022-12-18T10:29:36;18.45;;;9.55;;
34236;SDS011;20501;45.956;13.632;2022-12-18T10:32:03;71.20;;;13.55;;
34236;SDS011;20501;45.956;13.632;2022-12-18T10:34:28;68.10;;;15.13;;
34236;SDS011;20501;45.956;13.632;2022-12-18T10:36:54;14.70;;;8.63;;
34236;SDS011;20501;45.956;13.632;2022-12-18T10:39:24;16.20;;;7.78;;
34236;SDS011;20501;45.956;13.632;2022-12-18T10:41:52;30.48;;;9.48;;
34236;SDS011;20501;45.956;13.632;2022-12-18T10:44:35;15.43;;;8.23;;
34236;SDS011;20501;45.956;13.632;2022-12-18T10:47:04;19.50;;;8.48;;
34236;SDS011;20501;45.956;13.632;2022-12-18T10:49:36;23.27;;;8.48;;
34236;SDS011;20501;45.956;13.632;2022-12-18T10:52:07;15.75;;;8.65;;
34236;SDS011;20501;45.956;13.632;2022-12-18T10:54:37;18.30;;;8.43;;
34236;SDS011;20501;45.956;13.632;2022-12-18T10:57:16;21.65;;;8.82;;
34236;SDS011;20501;45.956;13.632;2022-12-18T10:59:53;17.13;;;8.63;;
34236;SDS011;20501;45.956;13.632;2022-12-18T11:02:36;17.27;;;9.98;;
34236;SDS011;20501;45.956;13.632;2022-12-18T11:05:04;18.35;;;8.32;;
34236;SDS011;20501;45.956;13.632;2022-12-18T11:07:49;15.70;;;8.40;;
34236;SDS011;20501;45.956;13.632;2022-12-18T11:12:44;17.90;;;7.80;;
34236;SDS011;20501;45.956;13.632;2022-12-18T11:15:15;15.73;;;8.20;;
34236;SDS011;20501;45.956;13.632;2022-12-18T11:17:51;15.68;;;7.65;;
34236;SDS011;20501;45.956;13.632;2022-12-18T11:20:21;17.42;;;8.43;;
34236;SDS011;20501;45.956;13.632;2022-12-18T11:22:58;15.32;;;7.90;;
34236;SDS011;20501;45.956;13.632;2022-12-18T11:25:25;17.55;;;7.72;;
34236;SDS011;20501;45.956;13.632;2022-12-18T11:27:52;14.32;;;8.77;;
34236;SDS011;20501;45.956;13.632;2022-12-18T11:30:30;16.95;;;8.15;;
34236;SDS011;20501;45.956;13.632;2022-12-18T11:33:16;17.90;;;8.73;;
34236;SDS011;20501;45.956;13.632;2022-12-18T11:35:50;16.55;;;8.75;;
34236;SDS011;20501;45.956;13.632;2022-12-18T11:40:50;16.25;;;8.50;;
34236;SDS011;20501;45.956;13.632;2022-12-18T11:43:31;14.20;;;8.25;;
34236;SDS011;20501;45.956;13.632;2022-12-18T11:46:23;13.50;;;7.97;;
34236;SDS011;20501;45.956;13.632;2022-12-18T11:54:46;12.77;;;6.90;;
34236;SDS011;20501;45.956;13.632;2022-12-18T12:03:00;12.30;;;6.97;;
34236;SDS011;20501;45.956;13.632;2022-12-18T12:19:44;13.38;;;8.23;;
34236;SDS011;20501;45.956;13.632;2022-12-18T12:35:55;17.42;;;9.40;;
34236;SDS011;20501;45.956;13.632;2022-12-18T12:38:28;13.82;;;8.27;;
34236;SDS011;20501;45.956;13.632;2022-12-18T12:40:59;17.40;;;9.30;;
34236;SDS011;20501;45.956;13.632;2022-12-18T12:43:32;15.18;;;8.90;;
34236;SDS011;20501;45.956;13.632;2022-12-18T12:46:06;16.50;;;9.00;;
34236;SDS011;20501;45.956;13.632;2022-12-18T12:48:44;16.77;;;9.23;;
34236;SDS011;20501;45.956;13.632;2022-12-18T12:51:23;18.85;;;9.68;;
34236;SDS011;20501;45.956;13.632;2022-12-18T12:53:50;16.67;;;8.60;;
34236;SDS011;20501;45.956;13.632;2022-12-18T12:56:18;16.67;;;9.68;;
34236;SDS011;20501;45.956;13.632;2022-12-18T13:09:24;16.10;;;8.43;;
34236;SDS011;20501;45.956;13.632;2022-12-18T13:11:49;17.35;;;9.63;;
34236;SDS011;20501;45.956;13.632;2022-12-18T13:14:34;15.80;;;8.90;;
34236;SDS011;20501;45.956;13.632;2022-12-18T13:19:52;18.38;;;9.68;;
34236;SDS011;20501;45.956;13.632;2022-12-18T13:22:34;17.02;;;9.45;;
34236;SDS011;20501;45.956;13.632;2022-12-18T13:25:02;14.80;;;7.93;;
34236;SDS011;20501;45.956;13.632;2022-12-18T13:28:07;17.10;;;9.52;;
34236;SDS011;20501;45.956;13.632;2022-12-18T13:33:46;16.83;;;9.55;;
34236;SDS011;20501;45.956;13.632;2022-12-18T13:35:52;17.27;;;8.32;;
34236;SDS011;20501;45.956;13.632;2022-12-18T13:46:04;17.88;;;9.48;;
34236;SDS011;20501;45.956;13.632;2022-12-18T13:48:36;17.52;;;9.50;;
34236;SDS011;20501;45.956;13.632;2022-12-18T13:51:06;17.38;;;9.35;;
34236;SDS011;20501;45.956;13.632;2022-12-18T13:56:25;15.00;;;8.52;;
34236;SDS011;20501;45.956;13.632;2022-12-18T14:01:46;18.38;;;9.40;;
34236;SDS011;20501;45.956;13.632;2022-12-18T14:04:44;16.40;;;8.85;;
34236;SDS011;20501;45.956;13.632;2022-12-18T14:07:12;14.75;;;7.78;;
34236;SDS011;20501;45.956;13.632;2022-12-18T14:09:49;19.38;;;9.40;;
34236;SDS011;20501;45.956;13.632;2022-12-18T14:12:25;19.17;;;9.93;;
34236;SDS011;20501;45.956;13.632;2022-12-18T14:17:42;23.33;;;10.50;;
34236;SDS011;20501;45.956;13.632;2022-12-18T14:20:12;14.30;;;8.15;;
34236;SDS011;20501;45.956;13.632;2022-12-18T14:22:42;22.10;;;9.88;;
34236;SDS011;20501;45.956;13.632;2022-12-18T14:27:49;25.58;;;12.05;;
34236;SDS011;20501;45.956;13.632;2022-12-18T14:35:32;17.30;;;9.38;;
34236;SDS011;20501;45.956;13.632;2022-12-18T14:40:46;16.25;;;8.40;;
34236;SDS011;20501;45.956;13.632;2022-12-18T14:43:12;15.40;;;8.52;;
34236;SDS011;20501;45.956;13.632;2022-12-18T14:45:41;16.65;;;8.90;;
34236;SDS011;20501;45.956;13.632;2022-12-18T14:48:08;15.55;;;9.13;;
34236;SDS011;20501;45.956;13.632;2022-12-18T14:50:40;18.65;;;10.27;;
34236;SDS011;20501;45.956;13.632;2022-12-18T14:53:06;16.38;;;8.32;;
34236;SDS011;20501;45.956;13.632;2022-12-18T14:55:43;22.92;;;10.90;;
34236;SDS011;20501;45.956;13.632;2022-12-18T14:58:12;17.23;;;9.18;;
34236;SDS011;20501;45.956;13.632;2022-12-18T15:00:41;14.18;;;8.00;;
34236;SDS011;20501;45.956;13.632;2022-12-18T15:03:07;18.98;;;10.63;;
34236;SDS011;20501;45.956;13.632;2022-12-18T15:05:34;17.08;;;8.70;;
34236;SDS011;20501;45.956;13.632;2022-12-18T15:08:00;20.58;;;11.50;;
34236;SDS011;20501;45.956;13.632;2022-12-18T15:20:41;19.65;;;11.50;;
34236;SDS011;20501;45.956;13.632;2022-12-18T15:25:49;14.65;;;8.73;;
34236;SDS011;20501;45.956;13.632;2022-12-18T15:28:23;18.80;;;10.27;;
34236;SDS011;20501;45.956;13.632;2022-12-18T15:30:59;17.20;;;9.57;;
34236;SDS011;20501;45.956;13.632;2022-12-18T15:36:20;16.00;;;8.52;;
34236;SDS011;20501;45.956;13.632;2022-12-18T15:38:51;15.32;;;8.77;;
34236;SDS011;20501;45.956;13.632;2022-12-18T15:41:19;20.67;;;11.73;;
34236;SDS011;20501;45.956;13.632;2022-12-18T15:43:47;13.25;;;7.82;;
34236;SDS011;20501;45.956;13.632;2022-12-18T15:46:21;16.15;;;9.02;;
34236;SDS011;20501;45.956;13.632;2022-12-18T15:48:52;14.48;;;8.45;;
34236;SDS011;20501;45.956;13.632;2022-12-18T15:53:56;15.23;;;8.45;;
34236;SDS011;20501;45.956;13.632;2022-12-18T15:56:24;18.60;;;10.50;;
34236;SDS011;20501;45.956;13.632;2022-12-18T15:59:12;17.90;;;9.60;;
34236;SDS011;20501;45.956;13.632;2022-12-18T16:01:43;14.13;;;8.63;;
34236;SDS011;20501;45.956;13.632;2022-12-18T16:04:11;17.30;;;10.57;;
34236;SDS011;20501;45.956;13.632;2022-12-18T16:06:38;16.80;;;9.32;;
34236;SDS011;20501;45.956;13.632;2022-12-18T16:09:03;16.15;;;9.05;;
34236;SDS011;20501;45.956;13.632;2022-12-18T16:11:29;18.13;;;10.82;;
34236;SDS011;20501;45.956;13.632;2022-12-18T16:14:22;20.08;;;12.05;;
34236;SDS011;20501;45.956;13.632;2022-12-18T16:19:21;21.55;;;11.48;;
34236;SDS011;20501;45.956;13.632;2022-12-18T16:21:46;21.63;;;12.75;;
34236;SDS011;20501;45.956;13.632;2022-12-18T16:24:18;28.20;;;15.38;;
34236;SDS011;20501;45.956;13.632;2022-12-18T16:26:48;24.55;;;13.65;;
34236;SDS011;20501;45.956;13.632;2022-12-18T16:29:16;49.70;;;27.70;;
34236;SDS011;20501;45.956;13.632;2022-12-18T16:31:42;32.20;;;17.00;;
34236;SDS011;20501;45.956;13.632;2022-12-18T16:36:42;45.75;;;24.92;;
34236;SDS011;20501;45.956;13.632;2022-12-18T16:39:08;57.72;;;30.05;;
34236;SDS011;20501;45.956;13.632;2022-12-18T16:41:33;59.08;;;31.17;;
34236;SDS011;20501;45.956;13.632;2022-12-18T16:44:00;47.30;;;23.92;;
34236;SDS011;20501;45.956;13.632;2022-12-18T16:46:25;51.20;;;26.73;;
34236;SDS011;20501;45.956;13.632;2022-12-18T16:48:51;42.75;;;21.83;;
34236;SDS011;20501;45.956;13.632;2022-12-18T16:51:16;47.42;;;22.65;;
34236;SDS011;20501;45.956;13.632;2022-12-18T16:53:42;51.22;;;25.48;;
34236;SDS011;20501;45.956;13.632;2022-12-18T16:56:07;42.63;;;22.85;;
34236;SDS011;20501;45.956;13.632;2022-12-18T16:58:33;39.55;;;21.15;;
34236;SDS011;20501;45.956;13.632;2022-12-18T17:00:59;43.33;;;22.50;;
34236;SDS011;20501;45.956;13.632;2022-12-18T17:03:24;41.60;;;22.33;;
34236;SDS011;20501;45.956;13.632;2022-12-18T17:05:50;39.13;;;20.33;;
34236;SDS011;20501;45.956;13.632;2022-12-18T17:08:16;33.78;;;18.70;;
34236;SDS011;20501;45.956;13.632;2022-12-18T17:10:41;34.83;;;20.20;;
34236;SDS011;20501;45.956;13.632;2022-12-18T17:13:06;39.50;;;20.38;;
34236;SDS011;20501;45.956;13.632;2022-12-18T17:15:35;35.85;;;18.98;;
34236;SDS011;20501;45.956;13.632;2022-12-18T17:18:01;39.85;;;20.58;;
34236;SDS011;20501;45.956;13.632;2022-12-18T17:20:28;38.38;;;19.48;;